TimePST,TemperatureF,Dew PointF,Humidity,Sea Level PressureIn,VisibilityMPH,Wind Direction,Wind SpeedMPH,Gust SpeedMPH,PrecipitationIn,Events,Conditions,WindDirDegrees,DateUTC
12:06 AM,48.2,46.4,93,30.02,7.0,SE,5.8,-,N/A,,Scattered Clouds,130,2014-02-04 08:06:00
12:53 AM,48.0,45.0,89,30.02,8.0,SE,6.9,-,N/A,,Partly Cloudy,130,2014-02-04 08:53:00
1:53 AM,48.0,45.0,89,30.02,10.0,SE,5.8,-,N/A,,Scattered Clouds,130,2014-02-04 09:53:00
2:53 AM,48.0,45.0,89,30.02,10.0,SE,6.9,-,N/A,,Clear,140,2014-02-04 10:53:00
3:53 AM,48.0,45.0,89,30.02,9.0,SE,6.9,-,N/A,,Scattered Clouds,130,2014-02-04 11:53:00
4:53 AM,48.0,45.0,89,30.02,9.0,SE,6.9,-,0.00,,Scattered Clouds,140,2014-02-04 12:53:00
5:53 AM,46.9,44.1,90,30.04,10.0,SE,6.9,-,N/A,,Clear,130,2014-02-04 13:53:00
6:53 AM,48.0,44.1,86,30.05,10.0,SE,6.9,-,N/A,,Partly Cloudy,140,2014-02-04 14:53:00
7:43 AM,51.8,46.4,82,30.06,10.0,SE,5.8,-,N/A,,Mostly Cloudy,130,2014-02-04 15:43:00
7:53 AM,52.0,46.0,80,30.06,10.0,SSE,6.9,-,N/A,,Overcast,160,2014-02-04 15:53:00
8:53 AM,55.0,46.9,74,30.08,10.0,SSE,8.1,-,N/A,,Overcast,150,2014-02-04 16:53:00
9:53 AM,57.9,46.9,67,30.09,10.0,Variable,5.8,-,N/A,,Mostly Cloudy,0,2014-02-04 17:53:00
10:16 AM,57.2,44.6,63,30.10,10.0,SW,8.1,-,N/A,,Mostly Cloudy,230,2014-02-04 18:16:00
10:53 AM,59.0,44.1,58,30.10,10.0,WSW,9.2,-,N/A,,Partly Cloudy,240,2014-02-04 18:53:00
11:53 AM,59.0,42.1,53,30.07,10.0,West,10.4,-,N/A,,Scattered Clouds,260,2014-02-04 19:53:00
12:53 PM,59.0,44.1,58,30.05,10.0,WNW,8.1,18.4,N/A,,Mostly Cloudy,290,2014-02-04 20:53:00
1:22 PM,59.0,42.8,55,30.04,10.0,SW,11.5,-,N/A,,Mostly Cloudy,230,2014-02-04 21:22:00
1:53 PM,59.0,44.1,58,30.04,10.0,West,13.8,-,N/A,,Mostly Cloudy,260,2014-02-04 21:53:00
2:08 PM,60.8,44.6,55,30.04,10.0,WSW,12.7,20.7,N/A,,Overcast,250,2014-02-04 22:08:00
2:46 PM,57.2,42.8,59,30.03,10.0,West,10.4,-,N/A,,Mostly Cloudy,270,2014-02-04 22:46:00
2:53 PM,57.9,44.1,60,30.03,10.0,West,5.8,16.1,N/A,,Scattered Clouds,280,2014-02-04 22:53:00
3:53 PM,57.0,43.0,59,30.03,10.0,WSW,9.2,-,N/A,,Partly Cloudy,240,2014-02-04 23:53:00
4:53 PM,55.0,43.0,64,30.03,10.0,WSW,5.8,-,N/A,,Scattered Clouds,250,2014-02-05 00:53:00
5:53 PM,53.1,43.0,69,30.04,10.0,West,4.6,-,N/A,,Clear,270,2014-02-05 01:53:00
6:53 PM,52.0,43.0,71,30.06,10.0,SW,4.6,-,N/A,,Clear,230,2014-02-05 02:53:00
7:53 PM,52.0,43.0,71,30.08,10.0,Calm,Calm,-,N/A,,Mostly Cloudy,0,2014-02-05 03:53:00
8:53 PM,51.1,43.0,74,30.08,10.0,Calm,Calm,-,N/A,,Overcast,0,2014-02-05 04:53:00
9:53 PM,51.1,43.0,74,30.09,10.0,Calm,Calm,-,N/A,,Scattered Clouds,0,2014-02-05 05:53:00
10:53 PM,52.0,43.0,71,30.10,10.0,Calm,Calm,-,N/A,,Overcast,0,2014-02-05 06:53:00
11:53 PM,51.1,43.0,74,30.09,10.0,Calm,Calm,-,N/A,,Overcast,0,2014-02-05 07:53:00